Time;durP1;ratioP1;P1;durP2;ratioP2;P2;SDS_P1;SDS_P2;PMS_P1;PMS_P2;Temp;Humidity;BMP_temperature;BMP_pressure;BME280_temperature;BME280_humidity;BME280_pressure;Samples;Min_cycle;Max_cycle;Signal;HPM_P1;HPM_P2
2023/06/11 00:01:15;;;;;;;10.00;9.40;;;22.60;23.50;;;;;;4994264;28;20436;-54
2023/06/11 00:03:42;;;;;;;9.37;8.80;;;22.60;23.50;;;;;;4994616;28;20508;-54
2023/06/11 00:06:08;;;;;;;11.37;9.13;;;22.60;23.50;;;;;;4994548;28;20829;-54
2023/06/11 00:08:34;;;;;;;9.00;8.33;;;22.60;23.50;;;;;;4993835;28;20417;-55
2023/06/11 00:11:00;;;;;;;9.53;8.80;;;22.60;23.50;;;;;;4994605;28;20778;-57
2023/06/11 00:13:29;;;;;;;9.00;8.50;;;22.60;23.50;;;;;;4993959;28;20228;-55
2023/06/11 00:15:55;;;;;;;9.53;8.93;;;22.50;24.10;;;;;;4994491;28;20178;-54
2023/06/11 00:18:21;;;;;;;9.10;8.40;;;22.50;24.40;;;;;;4995621;28;20480;-56
2023/06/11 00:20:47;;;;;;;10.60;9.90;;;22.40;24.40;;;;;;4994462;28;20189;-54
2023/06/11 00:23:14;;;;;;;10.37;9.67;;;22.40;24.60;;;;;;4993838;28;20268;-56
2023/06/11 00:25:39;;;;;;;10.90;10.20;;;22.40;24.70;;;;;;4994166;28;20515;-57
2023/06/11 00:28:06;;;;;;;10.33;9.63;;;22.40;24.90;;;;;;4994230;28;20444;-53
2023/06/11 00:30:31;;;;;;;9.37;8.67;;;22.30;25.00;;;;;;4994104;28;20647;-56
2023/06/11 00:32:57;;;;;;;9.23;8.63;;;22.40;25.10;;;;;;4993645;28;20425;-55
2023/06/11 00:35:23;;;;;;;10.83;10.23;;;22.40;25.40;;;;;;4994085;28;20235;-56
2023/06/11 00:37:49;;;;;;;10.17;9.10;;;22.40;25.50;;;;;;4994030;28;20182;-55
2023/06/11 00:40:15;;;;;;;9.87;9.07;;;22.40;25.60;;;;;;4993948;28;20197;-55
2023/06/11 00:42:41;;;;;;;10.03;9.33;;;22.40;25.50;;;;;;4993422;28;20421;-53
2023/06/11 00:45:08;;;;;;;9.80;9.10;;;22.30;25.60;;;;;;4993979;28;20209;-56
2023/06/11 00:47:36;;;;;;;9.70;9.07;;;22.30;25.50;;;;;;4993702;28;20207;-60
2023/06/11 00:50:04;;;;;;;9.77;9.27;;;22.30;25.60;;;;;;4994175;28;20410;-61
2023/06/11 00:52:30;;;;;;;10.63;10.00;;;22.30;25.70;;;;;;4993312;28;21007;-61
2023/06/11 00:54:56;;;;;;;10.60;9.90;;;22.30;25.90;;;;;;4993732;28;20445;-61
2023/06/11 00:57:24;;;;;;;11.00;10.40;;;22.20;25.90;;;;;;4993303;28;20540;-61
2023/06/11 00:59:53;;;;;;;10.30;9.67;;;22.20;26.20;;;;;;4993774;28;20425;-61
2023/06/11 01:02:22;;;;;;;11.17;10.47;;;22.20;26.10;;;;;;4993244;28;20472;-61
2023/06/11 01:04:57;;;;;;;11.27;10.57;;;22.20;26.50;;;;;;4993518;28;20972;-62
2023/06/11 01:07:25;;;;;;;10.30;9.67;;;22.20;26.50;;;;;;4993675;28;20417;-60
2023/06/11 01:09:51;;;;;;;11.47;10.77;;;22.20;26.50;;;;;;4993533;28;20421;-61
2023/06/11 01:12:17;;;;;;;10.03;9.40;;;22.10;26.70;;;;;;4992993;28;20774;-63
2023/06/11 01:14:42;;;;;;;10.53;9.83;;;22.10;26.90;;;;;;4993392;28;20479;-61
2023/06/11 01:17:31;;;;;;;11.13;10.37;;;22.10;27.20;;;;;;4993564;28;20232;-61
2023/06/11 01:20:16;;;;;;;11.33;10.57;;;22.10;27.00;;;;;;4993424;28;20173;-61
2023/06/11 01:23:00;;;;;;;11.73;11.03;;;22.10;27.00;;;;;;4992678;28;20417;-61
2023/06/11 01:25:45;;;;;;;11.57;10.97;;;22.10;27.30;;;;;;4993016;28;20539;-61
2023/06/11 01:28:17;;;;;;;11.10;10.50;;;22.10;27.10;;;;;;4993527;28;20417;-61
2023/06/11 01:30:49;;;;;;;11.17;10.50;;;22.10;27.30;;;;;;4993334;28;20460;-61
2023/06/11 01:33:15;;;;;;;10.47;9.97;;;22.10;27.20;;;;;;4993004;28;20413;-61
2023/06/11 01:35:44;;;;;;;11.67;10.97;;;22.10;27.30;;;;;;4993178;28;20858;-61
2023/06/11 01:38:10;;;;;;;10.47;9.67;;;22.00;27.40;;;;;;4993223;28;20184;-61
2023/06/11 01:40:36;;;;;;;11.47;10.77;;;21.90;28.00;;;;;;4992763;28;20437;-61
2023/06/11 01:43:05;;;;;;;10.47;9.77;;;22.00;27.40;;;;;;4992492;28;20577;-55
2023/06/11 01:45:36;;;;;;;11.63;10.90;;;22.00;27.50;;;;;;4992590;28;20221;-56
2023/06/11 01:48:02;;;;;;;12.40;11.70;;;21.90;27.60;;;;;;4992864;28;20409;-56
2023/06/11 01:50:28;;;;;;;11.97;11.20;;;21.90;27.70;;;;;;4992742;28;20428;-56
2023/06/11 01:52:53;;;;;;;11.33;10.73;;;21.90;27.80;;;;;;4992224;28;20630;-56
2023/06/11 01:55:19;;;;;;;12.37;11.57;;;21.90;27.70;;;;;;4992581;28;20193;-57
2023/06/11 01:57:46;;;;;;;12.60;11.90;;;21.90;27.50;;;;;;4992576;28;20546;-56
2023/06/11 02:00:12;;;;;;;11.13;10.53;;;21.80;27.70;;;;;;4992650;28;20178;-56
2023/06/11 02:02:40;;;;;;;12.27;11.50;;;21.80;27.90;;;;;;4991717;28;20776;-56
2023/06/11 02:05:07;;;;;;;11.57;10.97;;;21.80;28.00;;;;;;4992411;28;20198;-56
2023/06/11 02:07:32;;;;;;;12.07;11.37;;;21.80;28.00;;;;;;4992132;28;20790;-56
2023/06/11 02:09:58;;;;;;;11.90;11.20;;;21.80;27.90;;;;;;4991678;28;20414;-56
2023/06/11 02:12:23;;;;;;;11.40;10.70;;;21.90;28.00;;;;;;4991696;28;20185;-55
2023/06/11 02:14:49;;;;;;;11.20;10.60;;;21.90;28.00;;;;;;4992251;28;20181;-57
2023/06/11 02:17:15;;;;;;;11.00;10.20;;;21.80;28.00;;;;;;4992233;28;20182;-57
2023/06/11 02:19:41;;;;;;;10.80;10.20;;;21.80;27.90;;;;;;4992245;28;20205;-56
2023/06/11 02:22:06;;;;;;;11.20;10.60;;;21.80;27.90;;;;;;4991722;28;20180;-56
2023/06/11 02:24:32;;;;;;;11.03;10.50;;;21.70;27.80;;;;;;4991880;28;20261;-55
2023/06/11 02:26:57;;;;;;;12.20;11.43;;;21.70;27.90;;;;;;4992020;28;20174;-55
2023/06/11 02:29:23;;;;;;;11.17;10.57;;;21.70;28.20;;;;;;4992019;28;20213;-57
2023/06/11 02:31:49;;;;;;;12.30;11.57;;;21.70;28.30;;;;;;4991551;28;20524;-55
2023/06/11 02:34:15;;;;;;;12.07;11.30;;;21.70;28.20;;;;;;4992085;28;20554;-56
2023/06/11 02:36:40;;;;;;;11.77;11.07;;;21.70;28.10;;;;;;4991992;28;20424;-62
2023/06/11 02:39:06;;;;;;;10.67;9.97;;;21.70;28.20;;;;;;4992223;28;20213;-62
2023/06/11 02:41:33;;;;;;;12.10;11.30;;;21.70;28.10;;;;;;4991426;28;20232;-62
2023/06/11 02:43:59;;;;;;;12.03;11.20;;;21.60;28.20;;;;;;4991900;28;20417;-62
2023/06/11 02:46:24;;;;;;;11.47;10.97;;;21.70;28.00;;;;;;4991688;28;20563;-55
2023/06/11 02:48:50;;;;;;;11.53;10.93;;;21.70;28.00;;;;;;4991781;28;20439;-56
2023/06/11 02:51:16;;;;;;;10.77;10.13;;;21.70;28.10;;;;;;4991262;28;20186;-55
2023/06/11 02:53:42;;;;;;;12.43;11.63;;;21.70;28.20;;;;;;4991025;28;20182;-54
2023/06/11 02:56:08;;;;;;;11.70;11.03;;;21.60;28.00;;;;;;4991699;28;20184;-57
2023/06/11 02:58:33;;;;;;;11.10;10.50;;;21.60;27.80;;;;;;4991564;28;20425;-56
2023/06/11 03:00:59;;;;;;;10.67;10.17;;;21.60;27.90;;;;;;4991839;28;20182;-55
2023/06/11 03:03:24;;;;;;;10.90;10.30;;;21.60;28.00;;;;;;4991128;28;20182;-56
2023/06/11 03:05:50;;;;;;;9.87;9.27;;;21.60;27.90;;;;;;4991491;28;20304;-59
2023/06/11 03:08:16;;;;;;;11.00;10.47;;;21.60;27.80;;;;;;4990293;28;20178;-57
2023/06/11 03:10:41;;;;;;;11.13;10.53;;;21.60;28.00;;;;;;4991469;28;20182;-56
2023/06/11 03:13:07;;;;;;;11.80;11.10;;;21.50;28.10;;;;;;4991037;28;20202;-57
2023/06/11 03:15:33;;;;;;;11.57;10.97;;;21.50;27.90;;;;;;4991391;28;20211;-56
2023/06/11 03:17:58;;;;;;;11.43;10.80;;;21.50;27.90;;;;;;4991528;28;20182;-57
2023/06/11 03:20:24;;;;;;;12.03;11.37;;;21.50;27.90;;;;;;4993546;28;20421;-54
2023/06/11 03:22:50;;;;;;;11.90;11.17;;;21.50;28.10;;;;;;4994990;28;20181;-56
2023/06/11 03:25:16;;;;;;;12.00;11.40;;;21.50;28.10;;;;;;4995394;28;20210;-55
2023/06/11 03:27:41;;;;;;;12.00;11.33;;;21.40;28.20;;;;;;4995301;28;20420;-55
2023/06/11 03:30:07;;;;;;;12.03;11.23;;;21.40;28.10;;;;;;4995484;28;20261;-54
2023/06/11 03:32:33;;;;;;;11.70;11.00;;;21.40;27.90;;;;;;4994728;28;20182;-55
2023/06/11 03:34:58;;;;;;;10.77;10.17;;;21.40;27.90;;;;;;4995328;28;20417;-57
2023/06/11 03:37:24;;;;;;;12.30;11.43;;;21.30;28.10;;;;;;4995193;28;20178;-55
2023/06/11 03:39:50;;;;;;;11.23;10.63;;;21.30;28.20;;;;;;4995146;28;20185;-55
2023/06/11 03:42:16;;;;;;;10.67;10.10;;;21.30;28.10;;;;;;4994874;28;20552;-55
2023/06/11 03:44:41;;;;;;;10.87;10.27;;;21.30;28.20;;;;;;4994503;28;20466;-55
2023/06/11 03:47:07;;;;;;;11.23;10.73;;;21.30;28.20;;;;;;4995099;28;20544;-56
2023/06/11 03:49:33;;;;;;;11.90;10.90;;;21.20;28.10;;;;;;4995133;28;20181;-55
2023/06/11 03:51:59;;;;;;;10.27;9.77;;;21.20;28.30;;;;;;4994657;28;20174;-61
2023/06/11 03:54:24;;;;;;;10.73;10.13;;;21.20;28.20;;;;;;4995135;28;20217;-54
2023/06/11 03:56:50;;;;;;;11.30;10.70;;;21.30;28.20;;;;;;4995001;28;20475;-62
2023/06/11 03:59:16;;;;;;;11.70;11.00;;;21.30;28.30;;;;;;4995020;28;20628;-62
2023/06/11 04:01:41;;;;;;;11.33;10.73;;;21.20;28.40;;;;;;4994421;28;20190;-62
2023/06/11 04:04:07;;;;;;;11.33;10.73;;;21.30;28.60;;;;;;4994243;28;20182;-56
2023/06/11 04:06:38;;;;;;;10.97;10.47;;;21.20;28.60;;;;;;4995771;28;20587;-57
2023/06/11 04:09:04;;;;;;;10.70;10.10;;;21.20;28.50;;;;;;4994987;28;20182;-57
2023/06/11 04:11:30;;;;;;;11.77;11.10;;;21.20;28.40;;;;;;4994257;28;20421;-62
2023/06/11 04:13:55;;;;;;;10.10;9.47;;;21.10;28.30;;;;;;4994845;28;20902;-62
2023/06/11 04:16:21;;;;;;;10.70;10.10;;;21.10;28.50;;;;;;4994640;28;20182;-61
2023/06/11 04:18:47;;;;;;;11.60;11.00;;;21.10;28.30;;;;;;4993595;28;20268;-55
2023/06/11 04:21:13;;;;;;;10.73;10.23;;;21.20;28.40;;;;;;4993782;28;20556;-55
2023/06/11 04:23:40;;;;;;;11.13;10.43;;;21.20;28.40;;;;;;4994520;28;20420;-55
2023/06/11 04:26:09;;;;;;;11.97;11.27;;;21.20;28.40;;;;;;4994288;28;20469;-55
2023/06/11 04:28:36;;;;;;;10.37;9.80;;;21.20;28.30;;;;;;4994558;28;20441;-54
2023/06/11 04:31:06;;;;;;;11.53;10.80;;;21.10;28.20;;;;;;4993706;28;20447;-57
2023/06/11 04:33:32;;;;;;;11.10;10.40;;;21.10;28.40;;;;;;4994286;28;20487;-53
2023/06/11 04:36:05;;;;;;;11.17;10.50;;;21.10;28.70;;;;;;4995277;28;20780;-56
2023/06/11 04:38:36;;;;;;;11.70;11.00;;;21.00;28.50;;;;;;4994356;28;20452;-56
2023/06/11 04:41:02;;;;;;;11.50;10.80;;;21.10;28.80;;;;;;4994238;28;20445;-54
2023/06/11 04:43:33;;;;;;;11.70;11.10;;;21.10;28.90;;;;;;4995279;28;20417;-55
2023/06/11 04:45:59;;;;;;;11.20;10.60;;;21.00;28.80;;;;;;4994258;28;20468;-55
2023/06/11 04:48:27;;;;;;;11.70;11.10;;;20.90;29.20;;;;;;4994124;28;20417;-56
2023/06/11 04:50:55;;;;;;;11.53;10.70;;;20.90;29.20;;;;;;4994027;28;20417;-55
2023/06/11 04:53:22;;;;;;;11.00;10.30;;;21.00;29.00;;;;;;4993675;28;20413;-55
2023/06/11 04:55:55;;;;;;;12.07;11.17;;;21.00;29.00;;;;;;4993985;28;20433;-56
2023/06/11 04:58:21;;;;;;;11.83;11.23;;;21.00;29.30;;;;;;4994021;28;20424;-55
2023/06/11 05:00:47;;;;;;;11.33;10.73;;;21.00;28.80;;;;;;4993729;28;20484;-56
2023/06/11 05:03:17;;;;;;;12.27;11.57;;;20.90;29.00;;;;;;4993328;28;20512;-57
2023/06/11 05:05:49;;;;;;;11.63;10.93;;;20.90;29.40;;;;;;4993799;28;20468;-67
2023/06/11 05:08:16;;;;;;;11.60;10.90;;;21.00;29.30;;;;;;4993799;28;20462;-60
2023/06/11 05:10:42;;;;;;;12.67;12.00;;;20.90;29.00;;;;;;4993028;28;20421;-61
2023/06/11 05:13:07;;;;;;;12.37;11.63;;;20.90;29.30;;;;;;4980875;28;21133;-62
2023/06/11 05:15:33;;;;;;;13.17;12.30;;;20.80;29.40;;;;;;4973231;28;20224;-62
2023/06/11 05:18:00;;;;;;;12.87;11.97;;;20.90;29.80;;;;;;4972736;28;20186;-55
2023/06/11 05:20:26;;;;;;;11.67;11.00;;;20.80;29.50;;;;;;4973306;28;20182;-56
2023/06/11 05:22:58;;;;;;;12.37;11.67;;;20.80;29.60;;;;;;4972769;28;20461;-56
2023/06/11 05:25:29;;;;;;;12.10;11.40;;;20.80;29.50;;;;;;4972486;28;20474;-55
2023/06/11 05:27:58;;;;;;;11.50;10.90;;;20.80;29.40;;;;;;4971901;28;20410;-56
2023/06/11 05:30:25;;;;;;;11.00;10.30;;;20.80;29.60;;;;;;4973725;28;20418;-57
2023/06/11 05:32:55;;;;;;;12.37;11.47;;;20.90;29.40;;;;;;4972683;28;20801;-54
2023/06/11 05:35:20;;;;;;;11.97;11.27;;;20.90;29.10;;;;;;4972501;28;20426;-56
2023/06/11 05:37:47;;;;;;;12.43;11.70;;;20.90;29.30;;;;;;4972356;28;20581;-54
2023/06/11 05:40:13;;;;;;;12.07;11.20;;;20.90;29.20;;;;;;4973436;28;20195;-55
2023/06/11 05:42:38;;;;;;;12.53;11.83;;;21.00;29.40;;;;;;4972978;28;20457;-57
2023/06/11 05:45:06;;;;;;;11.83;11.07;;;21.10;29.20;;;;;;4974716;28;20458;-55
2023/06/11 05:47:32;;;;;;;11.40;10.73;;;21.10;28.80;;;;;;4973623;28;20414;-56
2023/06/11 05:49:58;;;;;;;11.67;11.03;;;21.20;28.50;;;;;;4973244;28;20441;-56
2023/06/11 05:52:24;;;;;;;12.53;11.83;;;21.20;28.50;;;;;;4972925;28;20846;-56
2023/06/11 05:54:50;;;;;;;11.87;11.17;;;21.20;28.40;;;;;;4973143;28;20550;-53
2023/06/11 05:57:24;;;;;;;11.57;10.87;;;21.20;28.50;;;;;;4973430;28;20237;-57
2023/06/11 05:59:50;;;;;;;12.37;11.77;;;21.20;28.70;;;;;;4972012;28;20223;-56
2023/06/11 06:02:16;;;;;;;13.27;12.40;;;21.20;28.40;;;;;;4972423;28;20501;-55
2023/06/11 06:04:42;;;;;;;12.03;11.43;;;21.30;28.40;;;;;;4972869;28;21045;-57
2023/06/11 06:07:07;;;;;;;12.33;11.63;;;21.30;28.30;;;;;;4973243;28;20946;-55
2023/06/11 06:09:34;;;;;;;11.90;11.10;;;21.30;28.80;;;;;;4973300;28;20516;-62
2023/06/11 06:12:00;;;;;;;11.37;10.77;;;21.40;28.20;;;;;;4972688;28;20175;-62
2023/06/11 06:14:25;;;;;;;11.60;10.80;;;21.40;28.00;;;;;;4973260;28;20911;-62
2023/06/11 06:16:51;;;;;;;11.73;11.03;;;21.40;27.90;;;;;;4973398;28;20472;-60
2023/06/11 06:19:17;;;;;;;12.00;11.20;;;21.40;27.80;;;;;;4973244;28;20183;-61
2023/06/11 06:21:43;;;;;;;12.03;11.33;;;21.50;27.80;;;;;;4972459;28;20465;-61
2023/06/11 06:24:10;;;;;;;10.77;10.27;;;21.50;27.70;;;;;;4972856;28;20218;-63
2023/06/11 06:26:40;;;;;;;11.37;10.67;;;21.60;27.60;;;;;;4972577;28;20225;-63
2023/06/11 06:29:08;;;;;;;13.10;12.20;;;21.60;27.20;;;;;;4972902;28;20422;-62
2023/06/11 06:31:36;;;;;;;13.27;12.47;;;21.60;27.50;;;;;;4972287;28;20430;-62
2023/06/11 06:34:02;;;;;;;11.53;10.83;;;21.60;27.60;;;;;;4972929;28;20426;-62
2023/06/11 06:36:28;;;;;;;10.80;10.20;;;21.70;27.10;;;;;;4972545;28;20537;-56
2023/06/11 06:38:54;;;;;;;10.70;10.10;;;21.70;27.00;;;;;;4972646;28;20835;-56
2023/06/11 06:41:20;;;;;;;11.33;10.73;;;21.70;26.80;;;;;;4971736;28;20226;-55
2023/06/11 06:43:45;;;;;;;11.27;10.67;;;21.80;26.70;;;;;;4972581;28;20198;-57
2023/06/11 06:46:11;;;;;;;11.77;10.97;;;21.90;26.40;;;;;;4972619;28;20244;-59
2023/06/11 06:48:37;;;;;;;11.57;10.87;;;21.90;26.10;;;;;;4972599;28;20309;-60
2023/06/11 06:51:02;;;;;;;12.13;11.43;;;22.00;26.40;;;;;;4972707;28;20190;-63
2023/06/11 06:53:28;;;;;;;11.20;10.70;;;22.00;26.00;;;;;;4971777;28;20191;-64
2023/06/11 06:55:54;;;;;;;10.50;10.00;;;22.10;25.50;;;;;;4971883;28;20187;-64
2023/06/11 06:58:19;;;;;;;11.67;11.07;;;22.20;25.00;;;;;;4972278;28;20647;-64
2023/06/11 07:00:45;;;;;;;11.03;10.43;;;22.30;24.40;;;;;;4972100;28;20434;-64
2023/06/11 07:03:13;;;;;;;16.57;11.97;;;22.30;24.20;;;;;;4988643;28;20201;-61
2023/06/11 07:05:43;;;;;;;12.07;11.17;;;22.40;24.10;;;;;;4991415;28;20292;-60
2023/06/11 07:08:10;;;;;;;11.60;10.90;;;22.40;24.00;;;;;;4991370;28;20817;-61
2023/06/11 07:10:35;;;;;;;11.97;11.27;;;22.40;23.60;;;;;;4991430;28;20421;-61
2023/06/11 07:13:01;;;;;;;12.17;11.40;;;22.40;23.70;;;;;;4990070;28;20487;-63
2023/06/11 07:15:27;;;;;;;11.00;10.40;;;22.50;23.40;;;;;;4989590;28;20178;-63
2023/06/11 07:17:52;;;;;;;11.07;10.47;;;22.60;23.50;;;;;;4989813;28;20666;-63
2023/06/11 07:20:18;;;;;;;11.23;10.43;;;22.70;23.50;;;;;;4989630;28;20178;-61
2023/06/11 07:22:44;;;;;;;10.73;10.03;;;22.80;22.70;;;;;;4988939;28;20217;-61
2023/06/11 07:25:09;;;;;;;10.93;10.33;;;22.90;22.60;;;;;;4989314;28;20697;-62
2023/06/11 07:27:35;;;;;;;11.53;10.90;;;22.90;22.40;;;;;;4989445;28;20174;-59
2023/06/11 07:30:01;;;;;;;11.40;10.73;;;22.90;22.00;;;;;;4990517;28;20634;-59
2023/06/11 07:32:27;;;;;;;12.13;11.03;;;22.90;22.20;;;;;;4990719;28;20273;-60
2023/06/11 07:34:52;;;;;;;12.30;11.27;;;22.90;22.10;;;;;;4991366;28;20424;-59
2023/06/11 07:37:18;;;;;;;10.53;10.03;;;22.90;22.00;;;;;;4992503;28;20643;-59
2023/06/11 07:39:43;;;;;;;10.37;9.87;;;23.00;21.70;;;;;;4991294;28;20601;-58
2023/06/11 07:42:10;;;;;;;10.73;10.03;;;23.10;21.00;;;;;;4974461;28;20260;-58
2023/06/11 07:44:35;;;;;;;11.87;11.07;;;23.10;20.60;;;;;;4991140;28;20200;-59
2023/06/11 07:47:01;;;;;;;11.17;10.40;;;23.20;20.50;;;;;;4991081;28;20464;-58
2023/06/11 07:49:27;;;;;;;9.87;9.27;;;23.20;20.40;;;;;;4992460;28;20257;-61
2023/06/11 07:51:52;;;;;;;11.00;10.30;;;23.20;20.10;;;;;;4990586;28;20179;-61
2023/06/11 07:54:18;;;;;;;11.20;10.50;;;23.20;20.10;;;;;;4991093;28;20277;-61
2023/06/11 07:56:46;;;;;;;9.73;9.13;;;23.30;20.10;;;;;;4991171;28;20646;-58
2023/06/11 07:59:12;;;;;;;11.33;10.07;;;23.50;19.20;;;;;;4991061;28;20186;-61
2023/06/11 08:01:38;;;;;;;10.07;9.47;;;23.60;19.30;;;;;;4990541;28;20434;-61
2023/06/11 08:04:04;;;;;;;10.07;9.37;;;23.60;18.80;;;;;;4990981;28;20421;-61
2023/06/11 08:06:30;;;;;;;9.00;8.50;;;23.60;18.40;;;;;;4991412;28;20242;-61
2023/06/11 08:08:56;;;;;;;10.47;9.63;;;23.70;18.50;;;;;;4994741;28;20283;-61
2023/06/11 08:11:22;;;;;;;9.47;8.97;;;23.80;18.30;;;;;;4993959;28;20182;-62
2023/06/11 08:13:48;;;;;;;9.83;9.27;;;23.80;17.90;;;;;;4994790;28;20428;-61
2023/06/11 08:16:15;;;;;;;9.33;8.73;;;23.90;17.70;;;;;;4994625;28;20420;-61
2023/06/11 08:18:41;;;;;;;8.60;8.20;;;23.90;17.00;;;;;;4994531;28;20684;-61
2023/06/11 08:21:06;;;;;;;8.57;8.07;;;23.90;17.10;;;;;;4994124;28;20436;-61
2023/06/11 08:23:37;;;;;;;10.60;9.90;;;24.00;17.20;;;;;;4994203;28;20239;-61
2023/06/11 08:26:03;;;;;;;9.57;8.97;;;24.10;16.80;;;;;;4994414;28;20217;-61
2023/06/11 08:28:28;;;;;;;10.77;10.07;;;24.10;16.90;;;;;;4994325;28;20926;-61
2023/06/11 08:30:55;;;;;;;9.53;8.93;;;24.10;17.10;;;;;;4994254;28;20675;-60
2023/06/11 08:33:21;;;;;;;9.03;8.40;;;24.10;16.90;;;;;;4993781;28;20201;-59
2023/06/11 08:35:47;;;;;;;10.10;9.40;;;24.20;16.40;;;;;;4994231;28;20425;-60
2023/06/11 08:38:13;;;;;;;9.57;8.97;;;24.20;15.90;;;;;;4994179;28;20229;-59
2023/06/11 08:40:41;;;;;;;9.87;9.27;;;24.30;15.90;;;;;;4995249;28;20526;-60
2023/06/11 08:43:08;;;;;;;9.67;8.97;;;24.30;16.20;;;;;;4994783;28;20983;-59
2023/06/11 08:45:33;;;;;;;10.23;9.53;;;24.30;16.00;;;;;;4993822;28;20469;-59
2023/06/11 08:48:02;;;;;;;9.90;9.30;;;24.40;16.40;;;;;;4994058;28;21044;-59
2023/06/11 08:50:29;;;;;;;9.27;8.73;;;24.40;15.80;;;;;;4993806;28;20188;-61
2023/06/11 08:52:56;;;;;;;9.67;8.97;;;24.60;15.40;;;;;;4993453;28;20488;-62
2023/06/11 08:55:22;;;;;;;9.47;8.87;;;24.70;14.90;;;;;;4993702;28;20432;-61
2023/06/11 08:57:50;;;;;;;9.47;8.67;;;24.70;14.60;;;;;;4993698;28;20421;-61
2023/06/11 09:00:16;;;;;;;9.00;8.17;;;24.80;14.50;;;;;;4993772;28;20181;-60
2023/06/11 09:02:42;;;;;;;10.03;9.33;;;24.90;14.50;;;;;;4993312;28;20431;-59
2023/06/11 09:05:10;;;;;;;9.77;8.83;;;24.80;14.50;;;;;;4993573;28;20535;-59
2023/06/11 09:07:36;;;;;;;10.10;9.30;;;24.90;14.60;;;;;;4993588;28;20413;-59
2023/06/11 09:10:04;;;;;;;8.90;8.30;;;25.10;14.40;;;;;;4993599;28;20452;-59
2023/06/11 09:12:29;;;;;;;8.23;7.73;;;25.20;14.10;;;;;;4993148;28;20413;-59
2023/06/11 09:14:55;;;;;;;9.97;9.37;;;25.20;13.90;;;;;;4993869;28;20436;-59
2023/06/11 09:17:21;;;;;;;8.40;7.80;;;25.20;13.70;;;;;;4993410;28;20273;-58
2023/06/11 09:19:46;;;;;;;10.57;9.97;;;25.10;13.70;;;;;;4993843;28;20205;-59
2023/06/11 09:22:12;;;;;;;9.57;8.97;;;25.30;13.30;;;;;;4993018;28;20182;-58
2023/06/11 09:24:37;;;;;;;9.00;8.47;;;25.40;13.10;;;;;;4993602;28;20178;-58
2023/06/11 09:27:06;;;;;;;9.03;8.33;;;25.40;13.50;;;;;;4993525;28;20264;-58
2023/06/11 09:29:32;;;;;;;9.17;8.57;;;25.40;14.50;;;;;;4993325;28;20178;-58
2023/06/11 09:32:02;;;;;;;12.90;9.00;;;25.30;14.30;;;;;;4992898;28;20417;-58
2023/06/11 09:34:28;;;;;;;8.97;8.47;;;25.20;14.00;;;;;;4993483;28;20425;-57
2023/06/11 09:36:54;;;;;;;9.33;8.70;;;25.30;13.90;;;;;;4993288;28;20531;-57
2023/06/11 09:39:20;;;;;;;10.23;9.37;;;25.40;13.20;;;;;;4993167;28;20192;-56
2023/06/11 09:41:50;;;;;;;9.20;8.60;;;25.40;13.20;;;;;;4992723;28;20263;-57
2023/06/11 09:44:19;;;;;;;9.40;8.70;;;25.60;12.30;;;;;;4993229;28;20454;-59
2023/06/11 09:46:49;;;;;;;9.60;9.00;;;25.80;11.80;;;;;;4993180;28;20889;-59
2023/06/11 09:49:16;;;;;;;8.60;7.90;;;25.90;10.70;;;;;;4993037;28;20425;-57
2023/06/11 09:51:43;;;;;;;8.37;7.67;;;25.90;10.40;;;;;;4992543;28;20787;-57
2023/06/11 09:54:12;;;;;;;9.13;8.47;;;26.00;10.70;;;;;;4993177;28;20427;-58
2023/06/11 09:56:38;;;;;;;8.83;8.23;;;26.10;10.50;;;;;;4992985;28;20512;-58
2023/06/11 09:59:05;;;;;;;7.97;7.40;;;26.10;9.10;;;;;;4992885;28;20508;-58
2023/06/11 10:01:31;;;;;;;8.03;7.53;;;26.10;7.80;;;;;;4992099;28;20181;-58
2023/06/11 10:04:00;;;;;;;8.60;8.10;;;26.20;8.20;;;;;;4992798;28;20417;-61
2023/06/11 10:06:41;;;;;;;9.03;8.33;;;26.30;7.30;;;;;;4992694;28;20508;-59
2023/06/11 10:09:11;;;;;;;9.17;8.37;;;26.40;7.00;;;;;;4992771;28;20483;-60
2023/06/11 10:11:39;;;;;;;8.43;7.90;;;26.70;6.70;;;;;;4991902;28;20433;-61
2023/06/11 10:14:11;;;;;;;7.77;7.33;;;27.00;6.00;;;;;;4992435;28;20409;-61
2023/06/11 10:16:37;;;;;;;9.07;8.37;;;27.10;6.20;;;;;;4992460;28;20835;-60
2023/06/11 10:19:06;;;;;;;8.80;8.30;;;27.00;6.60;;;;;;4992397;28;20425;-60
2023/06/11 10:21:45;;;;;;;8.30;7.80;;;27.00;6.80;;;;;;4991738;28;20425;-60
2023/06/11 10:24:25;;;;;;;11.73;8.90;;;27.10;6.20;;;;;;4992326;28;20457;-60
2023/06/11 10:27:12;;;;;;;8.20;7.70;;;27.10;6.10;;;;;;4992386;28;20555;-61
2023/06/11 10:29:56;;;;;;;9.53;8.63;;;27.10;5.20;;;;;;4991382;28;20512;-61
2023/06/11 10:32:23;;;;;;;8.70;8.10;;;27.20;5.40;;;;;;4990745;28;20475;-60
2023/06/11 10:34:54;;;;;;;8.70;8.10;;;27.40;4.60;;;;;;4991713;28;20508;-58
2023/06/11 10:37:47;;;;;;;8.50;7.90;;;27.40;4.90;;;;;;4992193;28;20475;-60
2023/06/11 10:40:13;;;;;;;9.23;8.53;;;27.50;5.10;;;;;;4989426;28;20841;-60
2023/06/11 10:42:44;;;;;;;8.60;7.90;;;27.50;4.90;;;;;;4991372;28;20429;-60
2023/06/11 10:45:13;;;;;;;8.60;8.10;;;27.60;5.00;;;;;;4991606;28;20260;-60
2023/06/11 10:47:49;;;;;;;9.97;8.97;;;27.70;4.40;;;;;;4991759;28;20417;-60
2023/06/11 10:50:17;;;;;;;9.13;8.53;;;27.70;4.40;;;;;;4991561;28;20429;-61
2023/06/11 10:52:59;;;;;;;9.60;8.90;;;27.80;4.40;;;;;;4991369;28;20980;-59
2023/06/11 10:55:29;;;;;;;8.90;8.30;;;27.80;4.40;;;;;;4991679;28;20421;-61
2023/06/11 10:57:55;;;;;;;9.73;9.00;;;27.70;5.30;;;;;;4988993;28;20429;-60
2023/06/11 11:00:22;;;;;;;9.47;8.67;;;27.60;5.10;;;;;;4988866;28;20425;-61
2023/06/11 11:02:48;;;;;;;9.67;8.97;;;27.60;5.10;;;;;;4991048;28;20497;-60
2023/06/11 11:05:14;;;;;;;9.53;8.93;;;27.60;4.90;;;;;;4991005;28;20547;-61
2023/06/11 11:07:44;;;;;;;9.80;9.10;;;27.60;4.90;;;;;;4980162;28;20505;-61
2023/06/11 11:10:11;;;;;;;9.97;9.37;;;27.70;4.70;;;;;;4972367;28;20206;-61
2023/06/11 11:12:45;;;;;;;8.73;8.03;;;27.70;5.00;;;;;;4971430;28;20879;-61
2023/06/11 11:15:12;;;;;;;8.90;8.30;;;27.70;5.10;;;;;;4972246;28;20425;-61
2023/06/11 11:17:42;;;;;;;9.60;8.90;;;27.70;5.20;;;;;;4972203;28;20899;-61
2023/06/11 11:20:13;;;;;;;8.90;8.30;;;27.70;4.70;;;;;;4972349;28;20437;-61
2023/06/11 11:22:39;;;;;;;10.13;9.27;;;27.80;4.90;;;;;;4955701;28;20884;-61
2023/06/11 11:25:07;;;;;;;8.90;8.30;;;27.80;4.90;;;;;;4973434;28;20508;-61
2023/06/11 11:27:34;;;;;;;9.97;9.27;;;27.60;5.30;;;;;;4972029;28;20179;-61
2023/06/11 11:30:02;;;;;;;9.33;8.47;;;27.50;5.80;;;;;;4972300;28;20422;-62
2023/06/11 11:32:33;;;;;;;9.93;9.23;;;27.40;5.30;;;;;;4971409;28;20509;-62
2023/06/11 11:35:01;;;;;;;8.47;7.93;;;27.40;5.10;;;;;;4972202;28;20430;-61
2023/06/11 11:37:30;;;;;;;9.23;8.53;;;27.60;4.80;;;;;;4973959;28;20431;-61
2023/06/11 11:39:56;;;;;;;9.67;9.03;;;27.80;4.70;;;;;;4991397;28;20424;-60
2023/06/11 11:42:25;;;;;;;9.30;8.70;;;27.70;4.80;;;;;;4991400;28;20422;-59
2023/06/11 11:44:54;;;;;;;9.93;9.07;;;27.60;4.70;;;;;;4989547;28;20424;-59
2023/06/11 11:47:21;;;;;;;9.70;9.00;;;27.50;4.60;;;;;;4992917;28;20417;-60
2023/06/11 11:49:55;;;;;;;8.77;8.27;;;27.40;4.40;;;;;;4995401;28;20781;-59
2023/06/11 11:52:23;;;;;;;9.70;9.00;;;27.40;4.70;;;;;;5005508;28;20501;-58
2023/06/11 11:54:50;;;;;;;9.67;8.97;;;27.40;5.10;;;;;;4996591;28;20409;-58
2023/06/11 11:57:20;;;;;;;8.03;7.53;;;27.30;3.80;;;;;;4995152;28;20421;-61
2023/06/11 11:59:49;;;;;;;9.83;8.87;;;27.20;4.10;;;;;;4995190;28;20753;-61
2023/06/11 12:02:15;;;;;;;9.00;8.37;;;27.20;4.10;;;;;;4994345;28;20428;-61
2023/06/11 12:04:44;;;;;;;9.10;8.40;;;27.30;3.40;;;;;;4995128;28;20515;-61
2023/06/11 12:07:15;;;;;;;8.20;7.70;;;27.40;3.30;;;;;;4995112;28;20217;-61
2023/06/11 12:09:41;;;;;;;8.10;7.67;;;27.40;3.40;;;;;;4994985;28;20412;-61
2023/06/11 12:12:08;;;;;;;11.40;10.60;;;27.30;3.30;;;;;;4994411;28;20456;-61
2023/06/11 12:14:37;;;;;;;9.00;8.40;;;27.40;3.00;;;;;;4994665;28;20417;-61
2023/06/11 12:17:04;;;;;;;9.33;8.63;;;27.30;3.30;;;;;;4995816;28;20417;-60
2023/06/11 12:19:31;;;;;;;9.60;9.00;;;27.10;3.90;;;;;;4994284;28;20429;-61
2023/06/11 12:21:56;;;;;;;9.33;8.53;;;27.00;4.40;;;;;;4993841;28;20425;-60
2023/06/11 12:24:23;;;;;;;7.90;7.23;;;27.00;4.00;;;;;;4990696;28;20420;-61
2023/06/11 12:26:49;;;;;;;9.00;8.23;;;27.10;4.00;;;;;;4992921;28;20209;-61
2023/06/11 12:29:16;;;;;;;12.57;9.20;;;27.40;3.80;;;;;;4985762;28;20421;-60
2023/06/11 12:31:41;;;;;;;9.17;8.60;;;27.30;4.10;;;;;;4987810;28;20443;-59
2023/06/11 12:34:09;;;;;;;9.03;8.23;;;27.20;4.10;;;;;;4985114;28;20417;-59
2023/06/11 12:36:36;;;;;;;10.47;9.80;;;27.10;4.00;;;;;;4993321;28;20314;-59
2023/06/11 12:39:04;;;;;;;9.47;8.87;;;27.20;3.80;;;;;;4990995;28;20424;-61